Time;durP1;ratioP1;P1;durP2;ratioP2;P2;SDS_P1;SDS_P2;PMS_P1;PMS_P2;Temp;Humidity;BMP_temperature;BMP_pressure;BME280_temperature;BME280_humidity;BME280_pressure;Samples;Min_cycle;Max_cycle;Signal;HPM_P1;HPM_P2
2023/02/11 00:10:06;;;;;;;76.50;37.60;;;;;;;-0.66;77.59;100128.30;437982;1248;107595;-40
2023/02/11 00:20:13;;;;;;;57.90;31.60;;;;;;;-0.56;77.65;100113.86;438155;1251;99218;-41
2023/02/11 00:30:19;;;;;;;85.50;38.40;;;;;;;-0.47;77.81;100102.04;438127;1247;111867;-40
2023/02/11 00:40:27;;;;;;;77.40;38.30;;;;;;;-0.55;77.94;100073.73;438097;1246;108779;-40
2023/02/11 00:50:34;;;;;;;78.90;36.10;;;;;;;-0.62;78.05;100058.20;438049;1248;99094;-40
2023/02/11 01:00:41;;;;;;;85.20;40.80;;;;;;;-0.70;78.07;100037.33;438150;1248;110195;-40
2023/02/11 01:10:54;;;;;;;65.50;30.00;;;;;;;-0.70;78.10;100032.86;438221;1250;108462;-39
2023/02/11 01:21:01;;;;;;;57.20;29.10;;;;;;;-0.60;78.25;100029.69;438026;1250;97970;-40
2023/02/11 01:31:08;;;;;;;88.60;38.50;;;;;;;-0.55;78.29;100010.03;438124;1247;108691;-38
2023/02/11 01:41:16;;;;;;;80.70;38.20;;;;;;;-0.61;78.33;100008.58;438172;1248;99249;-39
2023/02/11 01:51:27;;;;;;;82.20;40.00;;;;;;;-0.68;78.43;100001.88;438195;1250;112890;-40
2023/02/11 02:01:37;;;;;;;57.70;31.90;;;;;;;-0.73;78.39;99973.88;438120;1250;107553;-41
2023/02/11 02:11:45;;;;;;;64.80;30.00;;;;;;;-0.66;78.39;99952.40;438856;1246;98800;-41
2023/02/11 02:21:59;;;;;;;79.80;38.40;;;;;;;-0.61;78.60;99935.73;438114;1250;107290;-40
2023/02/11 02:32:23;;;;;;;86.80;39.80;;;;;;;-0.65;78.75;99909.36;438223;1248;98495;-40
2023/02/11 02:42:32;;;;;;;91.70;39.90;;;;;;;-0.74;78.71;99901.09;438120;1251;113015;-40
2023/02/11 02:52:42;;;;;;;60.90;32.00;;;;;;;-0.83;78.69;99891.24;438155;1251;108169;-40
2023/02/11 03:02:57;;;;;;;60.20;30.40;;;;;;;-0.82;78.54;99883.95;438089;1250;99223;-40
2023/02/11 03:13:07;;;;;;;79.40;34.80;;;;;;;-0.74;78.68;99864.19;438305;1251;110868;-41
2023/02/11 03:23:15;;;;;;;;;;;;;;;-0.82;78.83;99846.19;438183;1250;106704;-40
2023/02/11 03:33:29;;;;;;;78.10;36.00;;;;;;;-0.96;78.87;99820.51;437929;1250;436015;-39
2023/02/11 03:43:41;;;;;;;81.30;36.50;;;;;;;-1.07;78.83;99768.83;438095;1259;112025;-40
2023/02/11 03:53:50;;;;;;;58.30;29.00;;;;;;;-1.07;78.79;99753.63;438016;1252;108347;-40
2023/02/11 04:03:56;;;;;;;;;;;;;;;-0.96;78.82;99756.66;437983;1260;99245;-41
2023/02/11 04:14:04;;;;;;;64.50;29.90;;;;;;;-0.90;78.86;99758.79;438059;1248;113294;-39
2023/02/11 04:24:11;;;;;;;77.50;34.80;;;;;;;-0.89;79.02;99753.66;438072;1248;107441;-41
2023/02/11 04:34:18;;;;;;;67.50;31.80;;;;;;;-0.93;79.00;99752.05;438192;1248;97941;-40
2023/02/11 04:44:25;;;;;;;74.30;33.10;;;;;;;-0.98;78.96;99762.90;438216;1250;108540;-39
2023/02/11 04:54:32;;;;;;;56.80;26.00;;;;;;;-0.97;78.82;99769.39;438144;1250;99224;-39
2023/02/11 05:04:40;;;;;;;53.40;26.00;;;;;;;-0.87;78.86;99721.14;438081;1246;110897;-40
2023/02/11 05:14:47;;;;;;;74.70;34.00;;;;;;;-0.89;79.05;99656.19;438092;1250;107517;-39
2023/02/11 05:24:54;;;;;;;71.80;34.60;;;;;;;-1.03;79.00;99637.11;438111;1260;99212;-40
2023/02/11 05:35:01;;;;;;;72.80;33.60;;;;;;;-1.16;79.11;99670.09;438183;1247;111934;-39
2023/02/11 05:45:06;;;;;;;46.80;25.60;;;;;;;-1.21;79.00;99670.19;438096;1250;107793;-39
2023/02/11 05:55:13;;;;;;;55.90;26.10;;;;;;;-1.17;79.03;99661.66;438251;1250;98258;-40
2023/02/11 06:05:20;;;;;;;73.10;35.20;;;;;;;-1.14;79.15;99661.95;438122;1250;107890;-40
2023/02/11 06:15:27;;;;;;;73.90;33.20;;;;;;;-1.28;79.09;99660.67;438300;1247;99193;-40
2023/02/11 06:25:35;;;;;;;71.60;35.20;;;;;;;-1.37;79.23;99655.60;438229;1246;111225;-39
2023/02/11 06:35:42;;;;;;;56.00;29.60;;;;;;;-1.32;79.10;99663.11;438062;1251;107743;-40
2023/02/11 06:45:52;;;;;;;50.50;28.40;;;;;;;-1.17;79.13;99646.86;438049;1248;99090;-41
2023/02/11 06:56:02;;;;;;;79.00;37.80;;;;;;;-1.07;79.18;99645.27;438133;1250;112213;-40
2023/02/11 07:06:12;;;;;;;89.70;38.30;;;;;;;-1.09;79.23;99633.35;438180;1246;109727;-39
2023/02/11 07:16:21;;;;;;;80.20;36.70;;;;;;;-1.04;79.21;99620.98;438346;1250;97966;-40
2023/02/11 07:26:28;;;;;;;62.60;29.00;;;;;;;-0.86;79.20;99604.12;438762;1250;111418;-40
2023/02/11 07:36:36;;;;;;;57.80;29.80;;;;;;;-0.39;79.19;99595.91;438130;1250;106993;-40
2023/02/11 07:56:50;;;;;;;66.90;31.50;;;;;;;0.02;79.06;99633.30;438111;1251;112367;-40
2023/02/11 08:06:57;;;;;;;64.90;30.50;;;;;;;0.10;79.06;99623.88;438164;1250;108495;-39
2023/02/11 08:17:05;;;;;;;41.10;23.30;;;;;;;0.43;78.90;99614.81;438024;1250;99202;-40
2023/02/11 08:27:12;;;;;;;45.60;25.00;;;;;;;0.78;78.65;99593.13;438041;1248;108612;-41
2023/02/11 08:37:21;;;;;;;66.80;33.80;;;;;;;1.13;78.53;99599.00;438144;1250;98279;-40
2023/02/11 08:47:29;;;;;;;65.10;31.10;;;;;;;1.37;78.33;99602.80;438068;1248;110164;-42
2023/02/11 08:57:36;;;;;;;58.10;28.40;;;;;;;1.37;78.20;99605.05;438034;1250;109258;-41
2023/02/11 09:07:43;;;;;;;37.10;20.20;;;;;;;1.66;77.94;99602.60;441357;1247;98489;-39
2023/02/11 09:17:51;;;;;;;59.50;27.20;;;;;;;1.97;77.75;99587.75;438001;1249;109504;-41
2023/02/11 09:27:58;;;;;;;61.00;28.10;;;;;;;2.13;77.59;99573.66;438083;1250;99283;-39
2023/02/11 09:38:05;;;;;;;59.40;29.50;;;;;;;2.15;77.33;99579.65;438108;1247;113044;-39
2023/02/11 09:48:13;;;;;;;40.60;23.80;;;;;;;2.14;77.12;99562.36;437956;1248;107103;-39
2023/02/11 09:58:24;;;;;;;45.30;22.10;;;;;;;2.17;77.37;99551.32;438031;1250;99237;-40
2023/02/11 10:08:34;;;;;;;59.60;30.10;;;;;;;2.32;77.40;99497.44;438119;1250;106667;-39
2023/02/11 10:18:44;;;;;;;64.60;32.20;;;;;;;2.69;77.22;99458.95;438154;1250;99209;-40
2023/02/11 10:28:56;;;;;;;39.30;23.30;;;;;;;2.83;76.73;99458.36;438118;1251;111068;-40
2023/02/11 10:39:01;;;;;;;56.60;30.20;;;;;;;2.88;76.98;99453.04;437956;1250;109671;-39
2023/02/11 10:49:09;;;;;;;63.40;33.00;;;;;;;2.84;77.06;99460.95;438085;1251;98524;-40
2023/02/11 10:59:19;;;;;;;59.00;30.50;;;;;;;2.67;77.06;99453.80;438116;1247;111814;-42
2023/02/11 11:09:27;;;;;;;39.60;22.00;;;;;;;2.70;77.26;99435.23;437990;1250;107927;-39
2023/02/11 11:19:38;;;;;;;42.80;24.80;;;;;;;2.59;77.64;99435.16;438060;1247;99230;-39
2023/02/11 11:29:46;;;;;;;60.50;32.80;;;;;;;2.35;78.12;99437.05;438269;1250;110744;-40
2023/02/11 11:39:53;;;;;;;59.80;31.40;;;;;;;2.18;78.58;99440.23;438034;1251;108413;-40
2023/02/11 11:50:20;;;;;;;45.80;27.20;;;;;;;2.13;78.96;99444.50;438131;1250;98977;-40
2023/02/11 12:00:26;;;;;;;48.10;24.80;;;;;;;2.16;79.28;99440.45;438850;1250;110845;-40
2023/02/11 12:10:59;;;;;;;47.00;26.60;;;;;;;2.18;79.74;99397.28;438105;1248;107955;-39
2023/02/11 12:21:10;;;;;;;69.10;32.00;;;;;;;2.11;80.40;99399.92;437886;1250;99221;-39
2023/02/11 12:31:27;;;;;;;51.80;27.30;;;;;;;2.00;81.18;99407.11;439326;1247;111733;-40
2023/02/11 12:52:11;;;;;;;41.90;24.60;;;;;;;1.98;82.31;99351.15;437449;1250;99217;-40
2023/02/11 13:02:18;;;;;;;47.30;25.20;;;;;;;2.06;82.53;99280.06;438432;1250;108454;-40
2023/02/11 13:33:18;;;;;;;56.50;31.00;;;;;;;2.06;83.83;99380.69;437658;1247;99236;-39
2023/02/11 13:43:29;;;;;;;54.10;30.90;;;;;;;2.07;84.19;99379.94;437760;1250;98788;-40
2023/02/11 13:53:44;;;;;;;43.70;26.50;;;;;;;2.14;84.27;99385.68;438802;1250;112305;-40
2023/02/11 14:14:58;;;;;;;50.50;27.70;;;;;;;2.24;85.29;99371.79;438952;1248;99301;-40
2023/02/11 14:25:20;;;;;;;54.10;31.10;;;;;;;2.30;85.42;99392.02;437877;1248;107845;-40
2023/02/11 14:35:27;;;;;;;51.40;29.40;;;;;;;2.34;85.84;99394.72;437623;1250;98099;-40
2023/02/11 14:45:37;;;;;;;48.70;25.50;;;;;;;2.43;86.02;99387.02;437704;1250;110677;-41
2023/02/11 14:55:47;;;;;;;39.00;24.40;;;;;;;2.49;86.09;99388.27;437622;1247;106563;-39
2023/02/11 15:05:56;;;;;;;50.70;26.40;;;;;;;2.54;86.24;99406.39;437598;1250;98496;-41
2023/02/11 15:16:05;;;;;;;60.50;30.50;;;;;;;2.56;86.71;99409.36;437876;1250;107675;-39
2023/02/11 15:26:13;;;;;;;66.00;31.20;;;;;;;2.49;87.24;99407.46;437661;1248;280621;-40
2023/02/11 15:46:30;;;;;;;39.40;24.50;;;;;;;2.51;87.49;99416.89;440930;1249;106506;-40
2023/02/11 15:56:42;;;;;;;42.70;24.00;;;;;;;2.54;87.79;99415.27;441560;1248;98798;-40
2023/02/11 16:06:51;;;;;;;41.30;25.10;;;;;;;2.58;88.14;99415.69;441569;1250;108121;-40
2023/02/11 16:16:58;;;;;;;39.90;23.40;;;;;;;2.60;88.51;99419.88;440761;1248;99277;-41
2023/02/11 16:27:06;;;;;;;36.10;21.50;;;;;;;2.62;88.70;99429.41;442117;1250;110750;-39
2023/02/11 16:37:13;;;;;;;48.30;25.30;;;;;;;2.65;89.00;99423.53;440784;1251;107215;-38
2023/02/11 16:47:22;;;;;;;41.80;25.60;;;;;;;2.71;89.83;99434.23;440093;1248;99126;-39
2023/02/11 16:57:34;;;;;;;45.10;27.50;;;;;;;2.72;90.48;99443.16;439960;1250;107780;-40
2023/02/11 17:07:41;;;;;;;43.90;27.10;;;;;;;2.76;90.43;99447.80;439554;1250;98629;-40
2023/02/11 17:17:49;;;;;;;46.20;25.70;;;;;;;2.82;90.55;99449.31;441426;1247;110751;-40
2023/02/11 17:27:55;;;;;;;35.60;21.10;;;;;;;2.85;90.76;99463.70;441411;1248;107795;-38
2023/02/11 17:38:03;;;;;;;30.80;21.40;;;;;;;2.90;90.99;99468.48;441367;1250;97989;-40
2023/02/11 17:48:10;;;;;;;36.10;23.00;;;;;;;2.96;90.93;99476.17;439104;1250;108473;-38
2023/02/11 17:58:17;;;;;;;32.00;21.10;;;;;;;2.99;91.28;99480.39;440771;1250;98709;-40
2023/02/11 18:08:25;;;;;;;37.70;22.30;;;;;;;3.02;91.50;99483.59;441410;1250;110937;-40
2023/02/11 18:18:33;;;;;;;37.30;25.70;;;;;;;3.04;91.46;99496.84;441394;1247;107274;-40
2023/02/11 18:28:41;;;;;;;30.00;18.10;;;;;;;3.07;91.27;99495.23;441670;1246;99240;-40
2023/02/11 18:38:53;;;;;;;39.40;24.60;;;;;;;3.09;91.38;99507.36;439448;1250;108467;-40
2023/02/11 18:49:00;;;;;;;29.10;18.50;;;;;;;3.15;91.51;99507.46;441775;1250;98737;-40
2023/02/11 18:59:07;;;;;;;34.70;21.50;;;;;;;3.21;91.72;99513.48;441517;1250;112487;-39
2023/02/11 19:09:17;;;;;;;35.70;23.70;;;;;;;3.26;92.07;99521.71;437524;1248;107911;-40
2023/02/11 19:19:24;;;;;;;;;;;;;;;3.32;92.10;99534.94;437464;1250;99244;-39
2023/02/11 19:29:33;;;;;;;16.60;13.20;;;;;;;3.36;92.55;99536.46;437559;1250;108604;-39
2023/02/11 19:39:42;;;;;;;24.40;17.10;;;;;;;3.39;92.43;99546.19;437489;1248;98306;-39
2023/02/11 19:49:48;;;;;;;18.20;13.70;;;;;;;3.42;92.72;99551.85;437502;1247;110877;-39
2023/02/11 19:59:55;;;;;;;21.00;14.30;;;;;;;3.46;92.75;99562.08;437452;1250;109506;-38
2023/02/11 20:10:03;;;;;;;16.70;11.40;;;;;;;3.47;92.97;99563.91;437522;1250;97909;-39
2023/02/11 20:20:12;;;;;;;16.40;10.80;;;;;;;3.50;93.23;99570.71;437494;1248;108460;-38
2023/02/11 20:40:26;;;;;;;31.20;20.20;;;;;;;3.53;93.57;99587.96;438738;1248;113402;-40
2023/02/11 20:50:35;;;;;;;23.70;16.50;;;;;;;3.54;93.60;99604.42;440336;1248;107150;-39
2023/02/11 21:00:42;;;;;;;17.50;12.40;;;;;;;3.57;93.55;99618.37;437564;1251;99226;-40
2023/02/11 21:10:49;;;;;;;16.20;11.80;;;;;;;3.61;93.63;99638.58;437504;1250;109361;-38
2023/02/11 21:20:55;;;;;;;18.00;12.90;;;;;;;3.62;93.89;99643.51;437486;1248;97983;-39
2023/02/11 21:31:03;;;;;;;20.30;12.70;;;;;;;3.60;94.01;99646.84;437551;1250;112129;-41
2023/02/11 21:41:11;;;;;;;15.70;12.70;;;;;;;3.62;94.16;99672.11;437426;1260;107599;-39
2023/02/11 21:51:20;;;;;;;19.30;10.70;;;;;;;3.62;94.28;99680.42;437424;1250;99256;-40
2023/02/11 22:01:30;;;;;;;16.80;12.80;;;;;;;3.61;94.29;99686.54;437472;1250;108158;-39
2023/02/11 22:11:37;;;;;;;16.70;11.50;;;;;;;3.62;94.31;99697.94;437434;1251;99231;-38
2023/02/11 22:21:44;;;;;;;20.90;12.80;;;;;;;3.62;94.64;99705.89;440412;1248;112914;-40
2023/02/11 22:31:51;;;;;;;28.50;14.10;;;;;;;3.63;94.74;99705.98;439738;1248;106808;-39
2023/02/11 22:41:58;;;;;;;24.70;17.20;;;;;;;3.64;95.12;99732.27;437548;1250;98890;-39
2023/02/11 22:52:06;;;;;;;35.80;21.70;;;;;;;3.63;95.13;99747.87;437391;1259;107505;-39
2023/02/11 23:02:13;;;;;;;32.70;20.30;;;;;;;3.63;95.19;99754.11;437598;1248;97949;-39
2023/02/11 23:12:20;;;;;;;32.50;18.70;;;;;;;3.64;95.42;99755.95;437532;1259;111507;-38
2023/02/11 23:22:28;;;;;;;34.40;20.10;;;;;;;3.65;95.63;99769.09;438519;1250;110557;-39
2023/02/11 23:32:37;;;;;;;29.30;18.80;;;;;;;3.67;95.64;99770.47;438606;1250;98483;-39
2023/02/11 23:42:44;;;;;;;;;;;;;;;3.66;95.77;99780.60;438134;1259;108464;-39
2023/02/11 23:52:51;;;;;;;34.70;22.80;;;;;;;3.63;95.67;99789.83;438447;1247;98350;-39
